createdAt,value
2018-10-19T00:01:03.205Z,23.33
2018-10-19T00:03:37.728Z,24.50
2018-10-19T00:06:12.131Z,23.63
2018-10-19T00:12:02.349Z,26.10
2018-10-19T00:14:56.531Z,23.80
2018-10-19T00:17:31.297Z,25.33
2018-10-19T00:20:06.759Z,24.37
2018-10-19T00:22:41.288Z,26.20
2018-10-19T00:25:15.760Z,24.87
2018-10-19T00:27:50.293Z,25.03
2018-10-19T00:30:24.899Z,24.87
2018-10-19T00:33:03.529Z,24.43
2018-10-19T00:35:38.396Z,25.60
2018-10-19T00:38:13.057Z,25.47
2018-10-19T00:40:47.508Z,23.98
2018-10-19T00:43:28.913Z,25.95
2018-10-19T00:46:03.316Z,24.93
2018-10-19T00:48:38.124Z,24.65
2018-10-19T00:54:11.833Z,24.10
2018-10-19T00:57:06.231Z,25.88
2018-10-19T00:59:40.687Z,24.90
2018-10-19T01:02:15.205Z,24.40
2018-10-19T01:04:50.121Z,24.43
2018-10-19T01:07:28.945Z,24.77
2018-10-19T01:10:09.383Z,24.10
2018-10-19T01:12:43.984Z,23.77
2018-10-19T01:15:18.686Z,24.50
2018-10-19T01:20:57.549Z,23.63
2018-10-19T01:23:32.303Z,22.85
2018-10-19T01:26:06.864Z,24.27
2018-10-19T01:28:47.380Z,23.35
2018-10-19T01:31:21.864Z,22.43
2018-10-19T01:33:56.800Z,22.67
2018-10-19T01:36:36.843Z,23.30
2018-10-19T01:39:12.706Z,22.60
2018-10-19T01:41:47.101Z,21.73
2018-10-19T01:44:21.844Z,21.57
2018-10-19T01:46:56.489Z,23.07
2018-10-19T01:49:31.344Z,22.13
2018-10-19T01:52:06.404Z,23.37
2018-10-19T01:54:41.045Z,21.53
2018-10-19T01:57:15.816Z,20.52
2018-10-19T01:59:50.864Z,19.73
2018-10-19T02:02:25.809Z,21.75
2018-10-19T02:05:00.464Z,21.30
2018-10-19T02:07:35.115Z,19.57
2018-10-19T02:10:09.532Z,21.10
2018-10-19T02:12:44.068Z,20.80
2018-10-19T02:15:18.567Z,20.03
2018-10-19T02:17:52.999Z,19.48
2018-10-19T02:20:28.236Z,19.27
2018-10-19T02:23:02.905Z,20.03
2018-10-19T02:25:37.484Z,19.63
2018-10-19T02:28:12.172Z,20.10
2018-10-19T02:30:47.350Z,20.33
2018-10-19T02:33:21.913Z,19.40
2018-10-19T02:35:56.452Z,18.90
2018-10-19T02:38:31.047Z,19.60
2018-10-19T02:41:06.290Z,20.53
2018-10-19T02:43:40.732Z,18.50
2018-10-19T02:46:15.076Z,18.00
2018-10-19T02:48:49.995Z,18.82
2018-10-19T02:51:24.707Z,18.70
2018-10-19T02:53:59.158Z,18.35
2018-10-19T02:56:33.729Z,18.37
2018-10-19T02:59:08.247Z,19.13
2018-10-19T03:01:42.780Z,19.77
2018-10-19T03:04:17.394Z,18.90
2018-10-19T03:06:52.173Z,18.90
2018-10-19T03:09:26.772Z,19.40
2018-10-19T03:12:01.262Z,20.37
2018-10-19T03:14:36.727Z,19.33
2018-10-19T03:17:11.140Z,19.27
2018-10-19T03:19:45.692Z,20.17
2018-10-19T03:22:20.308Z,19.67
2018-10-19T03:24:54.821Z,20.50
2018-10-19T03:27:29.737Z,19.60
2018-10-19T03:30:04.604Z,21.13
2018-10-19T03:32:39.386Z,20.57
2018-10-19T03:35:14.129Z,19.30
2018-10-19T03:37:48.819Z,20.83
2018-10-19T03:40:23.456Z,21.43
2018-10-19T03:42:58.020Z,21.87
2018-10-19T03:45:32.836Z,21.90
2018-10-19T03:48:07.252Z,21.20
2018-10-19T03:50:41.865Z,21.67
2018-10-19T03:53:16.425Z,21.37
2018-10-19T03:55:50.728Z,21.20
2018-10-19T03:58:25.201Z,23.03
2018-10-19T04:00:59.812Z,22.20
2018-10-19T04:03:34.389Z,21.97
2018-10-19T04:06:08.948Z,22.37
2018-10-19T04:08:43.704Z,22.10
2018-10-19T04:11:18.337Z,20.97
2018-10-19T04:13:52.784Z,21.70
2018-10-19T04:16:27.403Z,23.27
2018-10-19T04:19:01.964Z,22.33
2018-10-19T04:21:36.483Z,20.73
2018-10-19T04:24:11.005Z,21.53
2018-10-19T04:26:46.300Z,20.95
2018-10-19T04:29:20.804Z,21.23
2018-10-19T04:31:55.429Z,20.77
2018-10-19T04:34:30.201Z,20.73
2018-10-19T04:37:06.047Z,20.13
2018-10-19T04:39:41.156Z,20.17
2018-10-19T04:47:17.740Z,19.57
2018-10-19T04:49:52.377Z,18.80
2018-10-19T04:52:26.980Z,19.20
2018-10-19T04:55:01.766Z,17.93
2018-10-19T04:57:36.257Z,19.00
2018-10-19T05:00:10.697Z,18.50
2018-10-19T05:02:45.294Z,18.70
2018-10-19T05:05:19.976Z,18.03
2018-10-19T05:07:54.447Z,19.93
2018-10-19T05:10:29.059Z,19.03
2018-10-19T05:13:04.135Z,18.77
2018-10-19T05:15:44.551Z,19.80
2018-10-19T05:21:18.249Z,19.17
2018-10-19T05:23:52.725Z,19.52
2018-10-19T05:26:27.417Z,20.72
2018-10-19T05:29:02.172Z,19.90
2018-10-19T05:31:36.785Z,19.27
2018-10-19T05:34:11.684Z,19.80
2018-10-19T05:36:46.105Z,19.43
2018-10-19T05:39:20.473Z,19.73
2018-10-19T05:41:54.984Z,21.00
2018-10-19T05:44:29.537Z,19.40
2018-10-19T05:47:04.211Z,19.27
2018-10-19T05:49:38.959Z,19.80
2018-10-19T05:52:13.588Z,19.30
2018-10-19T05:54:48.215Z,19.73
2018-10-19T05:57:22.680Z,21.40
2018-10-19T05:59:57.692Z,19.43
2018-10-19T06:02:32.933Z,19.93
2018-10-19T06:05:16.993Z,20.00
2018-10-19T06:07:52.163Z,20.83
2018-10-19T06:10:40.784Z,20.27
2018-10-19T06:13:15.729Z,20.20
2018-10-19T06:15:50.416Z,20.60
2018-10-19T06:18:31.244Z,21.00
2018-10-19T06:21:05.920Z,20.40
2018-10-19T06:23:40.476Z,22.27
2018-10-19T06:26:15.071Z,20.80
2018-10-19T06:28:55.815Z,21.63
2018-10-19T06:31:30.337Z,21.87
2018-10-19T06:34:04.933Z,22.50
2018-10-19T06:36:39.469Z,21.67
2018-10-19T06:39:13.905Z,22.53
2018-10-19T06:41:48.576Z,21.77
2018-10-19T06:44:23.396Z,22.13
2018-10-19T06:46:58.140Z,23.47
2018-10-19T06:49:32.651Z,22.03
2018-10-19T06:52:07.288Z,21.37
2018-10-19T06:54:42.204Z,21.47
2018-10-19T06:57:16.628Z,22.10
2018-10-19T06:59:51.680Z,20.03
2018-10-19T07:02:26.824Z,21.60
2018-10-19T07:05:01.654Z,18.97
2018-10-19T07:07:36.982Z,20.10
2018-10-19T07:10:11.610Z,19.87
2018-10-19T07:12:46.254Z,20.23
2018-10-19T07:15:21.076Z,20.00
2018-10-19T07:17:55.970Z,18.80
2018-10-19T07:20:30.505Z,19.33
2018-10-19T07:23:05.559Z,20.40
2018-10-19T07:25:40.240Z,19.57
2018-10-19T07:28:15.164Z,19.52
2018-10-19T07:30:50.322Z,17.93
2018-10-19T07:33:24.736Z,17.90
2018-10-19T07:36:01.465Z,18.70
2018-10-19T07:38:35.937Z,18.83
2018-10-19T07:41:10.835Z,18.13
2018-10-19T07:43:45.752Z,17.40
2018-10-19T07:46:20.248Z,16.53
2018-10-19T07:48:55.008Z,17.40
2018-10-19T07:51:29.472Z,17.77
2018-10-19T07:54:05.018Z,18.10
2018-10-19T07:56:39.565Z,17.43
2018-10-19T07:59:14.391Z,16.10
2018-10-19T08:01:49.262Z,16.60
2018-10-19T08:04:24.196Z,15.83
2018-10-19T08:06:59.064Z,16.50
2018-10-19T08:09:33.562Z,15.83
2018-10-19T08:12:08.620Z,17.27
2018-10-19T08:14:43.321Z,14.97
2018-10-19T08:17:18.185Z,15.77
2018-10-19T08:19:52.530Z,15.70
2018-10-19T08:22:27.045Z,15.73
2018-10-19T08:25:01.504Z,14.60
2018-10-19T08:27:36.366Z,16.53
2018-10-19T08:30:10.900Z,16.17
2018-10-19T08:32:45.484Z,15.20
2018-10-19T08:35:20.132Z,16.13
2018-10-19T08:37:55.765Z,16.03
2018-10-19T08:40:30.404Z,15.67
2018-10-19T08:43:05.333Z,15.38
2018-10-19T08:45:40.261Z,15.55
2018-10-19T08:48:14.661Z,15.97
2018-10-19T08:50:49.260Z,14.93
2018-10-19T08:53:23.867Z,14.53
2018-10-19T08:55:58.825Z,15.20
2018-10-19T08:58:33.401Z,15.90
2018-10-19T09:01:07.975Z,16.03
2018-10-19T09:03:42.686Z,14.80
2018-10-19T09:06:17.244Z,16.17
2018-10-19T09:08:52.553Z,16.17
2018-10-19T09:11:27.146Z,16.13
2018-10-19T09:14:06.254Z,16.10
2018-10-19T09:16:42.602Z,16.10
2018-10-19T09:19:11.705Z,17.50
2018-10-19T09:21:40.180Z,16.70
2018-10-19T09:24:08.600Z,14.97
2018-10-19T09:26:38.352Z,16.27
2018-10-19T09:29:13.822Z,15.10
2018-10-19T09:31:48.372Z,15.40
2018-10-19T09:34:23.028Z,16.00
2018-10-19T09:36:57.699Z,17.17
2018-10-19T09:39:32.292Z,16.83
2018-10-19T09:44:15.507Z,16.93
2018-10-19T09:46:49.906Z,16.05
2018-10-19T09:53:46.007Z,16.20
2018-10-19T09:56:14.444Z,16.23
2018-10-19T09:58:42.725Z,15.90
2018-10-19T10:01:16.378Z,18.00
2018-10-19T10:03:44.744Z,16.97
2018-10-19T10:06:13.150Z,17.40
2018-10-19T10:08:41.530Z,17.12
2018-10-19T10:11:09.962Z,17.47
2018-10-19T10:13:38.602Z,17.40
2018-10-19T10:16:06.997Z,17.93
2018-10-19T10:18:38.288Z,16.83
2018-10-19T10:21:07.143Z,17.27
2018-10-19T10:23:35.633Z,18.03
2018-10-19T10:26:04.168Z,17.00
2018-10-19T10:28:32.596Z,17.07
2018-10-19T10:31:01.305Z,18.17
2018-10-19T10:33:29.736Z,17.53
2018-10-19T10:35:58.402Z,17.23
2018-10-19T10:38:26.780Z,17.90
2018-10-19T10:40:55.977Z,17.43
2018-10-19T10:43:24.324Z,16.73
2018-10-19T10:45:52.688Z,17.93
2018-10-19T10:48:21.038Z,16.63
2018-10-19T10:50:49.395Z,18.37
2018-10-19T10:53:17.841Z,18.77
2018-10-19T10:55:46.213Z,18.10
2018-10-19T10:58:14.696Z,18.73
2018-10-19T11:00:43.067Z,18.30
2018-10-19T11:03:11.733Z,18.73
2018-10-19T11:05:40.052Z,17.43
2018-10-19T11:08:08.973Z,16.93
2018-10-19T11:10:37.357Z,17.40
2018-10-19T11:13:05.830Z,16.37
2018-10-19T11:15:34.463Z,17.03
2018-10-19T11:18:02.890Z,16.87
2018-10-19T11:20:31.540Z,17.57
2018-10-19T11:22:59.969Z,17.80
2018-10-19T11:25:28.357Z,17.63
2018-10-19T11:27:56.748Z,17.73
2018-10-19T11:30:25.471Z,17.87
2018-10-19T11:32:53.787Z,17.87
2018-10-19T11:35:22.198Z,16.40
2018-10-19T11:37:50.689Z,17.87
2018-10-19T11:40:26.912Z,17.27
2018-10-19T11:42:55.869Z,17.43
2018-10-19T11:45:25.421Z,17.83
2018-10-19T11:47:53.808Z,18.65
2018-10-19T11:50:22.353Z,18.30
2018-10-19T11:52:51.049Z,17.60
2018-10-19T11:55:19.959Z,15.93
2018-10-19T11:57:49.592Z,16.62
2018-10-19T12:00:17.989Z,16.75
2018-10-19T12:02:47.037Z,17.17
2018-10-19T12:05:15.515Z,17.92
2018-10-19T12:07:43.940Z,17.57
2018-10-19T12:10:13.172Z,17.37
2018-10-19T12:12:41.980Z,16.33
2018-10-19T12:15:13.415Z,16.90
2018-10-19T12:17:42.453Z,18.33
2018-10-19T12:20:12.847Z,17.70
2018-10-19T12:22:41.496Z,16.77
2018-10-19T12:25:11.236Z,17.42
2018-10-19T12:27:40.204Z,16.80
2018-10-19T12:30:09.248Z,17.20
2018-10-19T12:32:38.421Z,17.15
2018-10-19T12:35:07.972Z,17.13
2018-10-19T12:37:36.328Z,17.23
2018-10-19T12:40:05.228Z,18.27
2018-10-19T12:42:33.824Z,17.93
2018-10-19T12:45:02.305Z,20.60
2018-10-19T12:47:34.009Z,19.13
2018-10-19T12:50:02.361Z,20.07
2018-10-19T12:52:30.848Z,17.33
2018-10-19T12:54:59.385Z,18.33
2018-10-19T12:57:27.790Z,19.23
2018-10-19T12:59:56.412Z,17.67
2018-10-19T13:02:24.750Z,18.30
2018-10-19T13:04:53.737Z,19.03
2018-10-19T13:07:22.424Z,19.43
2018-10-19T13:09:50.842Z,18.07
2018-10-19T13:12:19.276Z,18.00
2018-10-19T13:14:47.636Z,18.23
2018-10-19T13:17:16.016Z,17.47
2018-10-19T13:19:44.842Z,18.93
2018-10-19T13:22:13.198Z,18.60
2018-10-19T13:24:41.613Z,19.37
2018-10-19T13:27:10.079Z,19.40
2018-10-19T13:29:38.848Z,18.55
2018-10-19T13:32:07.316Z,18.47
2018-10-19T13:34:58.668Z,17.60
2018-10-19T13:37:27.032Z,18.03
2018-10-19T13:39:55.469Z,16.87
2018-10-19T13:42:23.888Z,18.70
2018-10-19T13:44:52.407Z,16.73
2018-10-19T13:47:21.234Z,17.47
2018-10-19T13:49:54.553Z,18.10
2018-10-19T13:55:18.820Z,17.90
2018-10-19T13:58:10.377Z,18.60
2018-10-19T14:00:39.528Z,17.87
2018-10-19T14:03:08.208Z,18.03
2018-10-19T14:05:36.922Z,18.07
2018-10-19T14:08:05.308Z,19.37
2018-10-19T14:10:33.811Z,18.43
2018-10-19T14:13:02.217Z,18.87
2018-10-19T14:15:30.585Z,19.10
2018-10-19T14:17:59.760Z,19.33
2018-10-19T14:20:28.499Z,18.40
2018-10-19T14:22:56.957Z,20.27
2018-10-19T14:25:25.402Z,19.63
2018-10-19T14:27:54.144Z,19.12
2018-10-19T14:30:26.068Z,19.83
2018-10-19T14:32:54.693Z,18.73
2018-10-19T14:35:23.120Z,19.82
2018-10-19T14:37:51.560Z,19.60
2018-10-19T14:40:21.046Z,19.03
2018-10-19T14:42:49.752Z,21.00
2018-10-19T14:45:18.561Z,21.70
2018-10-19T14:47:48.267Z,20.77
2018-10-19T14:50:17.842Z,22.20
2018-10-19T14:52:46.429Z,20.23
2018-10-19T14:55:16.481Z,19.93
2018-10-19T14:57:46.190Z,20.35
2018-10-19T15:00:16.045Z,20.10
2018-10-19T15:02:44.435Z,21.03
2018-10-19T15:05:14.630Z,20.67
2018-10-19T15:07:42.987Z,20.57
2018-10-19T15:10:14.261Z,20.70
2018-10-19T15:12:43.041Z,20.80
2018-10-19T15:15:13.428Z,21.07
2018-10-19T15:17:41.852Z,20.70
2018-10-19T15:20:10.816Z,20.57
2018-10-19T15:22:39.260Z,20.10
2018-10-19T15:25:08.392Z,19.80
2018-10-19T15:27:36.996Z,19.90
2018-10-19T15:30:06.347Z,21.20
2018-10-19T15:32:34.742Z,22.03
2018-10-19T15:35:03.440Z,20.60
2018-10-19T15:37:31.810Z,21.03
2018-10-19T15:40:00.663Z,19.90
2018-10-19T15:42:30.176Z,20.67
2018-10-19T15:45:00.560Z,19.43
2018-10-19T15:47:33.672Z,22.57
2018-10-19T15:50:02.067Z,21.13
2018-10-19T15:52:30.429Z,32.13
2018-10-19T15:54:58.762Z,22.00
2018-10-19T15:57:27.205Z,25.35
2018-10-19T15:59:55.579Z,27.13
2018-10-19T16:02:24.307Z,23.90
2018-10-19T16:04:52.923Z,24.07
2018-10-19T16:07:21.636Z,22.02
2018-10-19T16:09:50.296Z,22.77
2018-10-19T16:12:18.655Z,20.23
2018-10-19T16:14:47.020Z,19.50
2018-10-19T16:17:15.720Z,20.80
2018-10-19T16:19:44.477Z,20.30
2018-10-19T16:22:12.797Z,19.67
2018-10-19T16:24:42.127Z,19.57
2018-10-19T16:27:10.695Z,19.63
2018-10-19T16:29:43.664Z,18.63
2018-10-19T16:32:12.012Z,18.40
2018-10-19T16:34:40.466Z,18.27
2018-10-19T16:37:18.881Z,19.80
2018-10-19T16:39:47.225Z,19.63
2018-10-19T16:42:15.746Z,19.40
2018-10-19T16:45:00.929Z,20.55
2018-10-19T16:47:32.983Z,18.90
2018-10-19T16:50:01.597Z,19.13
2018-10-19T16:52:29.998Z,18.87
2018-10-19T16:54:58.441Z,20.57
2018-10-19T16:57:27.369Z,19.67
2018-10-19T17:00:07.306Z,19.27
2018-10-19T17:02:38.891Z,18.50
2018-10-19T17:05:07.585Z,19.52
2018-10-19T17:07:36.076Z,20.00
2018-10-19T17:10:04.699Z,18.97
2018-10-19T17:12:33.107Z,20.10
2018-10-19T17:15:01.571Z,20.70
2018-10-19T17:17:29.986Z,20.60
2018-10-19T17:19:58.873Z,21.63
2018-10-19T17:22:27.549Z,21.35
2018-10-19T17:24:56.020Z,19.67
2018-10-19T17:27:24.388Z,21.90
2018-10-19T17:29:52.830Z,20.10
2018-10-19T17:32:21.429Z,20.35
2018-10-19T17:34:50.055Z,21.73
2018-10-19T17:37:18.512Z,21.50
2018-10-19T17:39:46.932Z,22.43
2018-10-19T17:42:15.364Z,22.87
2018-10-19T17:44:43.703Z,22.27
2018-10-19T17:47:14.489Z,23.52
2018-10-19T17:49:43.173Z,22.67
2018-10-19T17:52:11.550Z,22.80
2018-10-19T17:54:39.964Z,22.93
2018-10-19T17:57:08.366Z,22.50
2018-10-19T17:59:36.796Z,24.30
2018-10-19T18:02:05.908Z,23.83
2018-10-19T18:04:34.326Z,24.02
2018-10-19T18:07:02.976Z,22.67
2018-10-19T18:09:31.389Z,25.60
2018-10-19T18:11:59.953Z,26.10
2018-10-19T18:14:28.340Z,24.82
2018-10-19T18:16:57.151Z,23.63
2018-10-19T18:19:25.473Z,23.93
2018-10-19T18:21:54.275Z,23.73
2018-10-19T18:24:28.969Z,23.80
2018-10-19T18:26:57.643Z,24.50
2018-10-19T18:29:26.053Z,25.33
2018-10-19T18:31:54.867Z,24.77
2018-10-19T18:34:23.208Z,24.33
2018-10-19T18:36:51.581Z,25.47
2018-10-19T18:39:20.288Z,24.50
2018-10-19T18:41:48.660Z,27.48
2018-10-19T18:44:17.069Z,24.93
2018-10-19T18:46:45.405Z,25.50
2018-10-19T18:49:14.165Z,26.27
2018-10-19T18:51:42.637Z,24.70
2018-10-19T18:54:11.032Z,24.27
2018-10-19T18:56:39.678Z,25.17
2018-10-19T18:59:09.396Z,24.83
2018-10-19T19:01:37.691Z,26.40
2018-10-19T19:04:06.393Z,25.30
2018-10-19T19:06:34.792Z,26.60
2018-10-19T19:09:03.330Z,25.80
2018-10-19T19:11:32.842Z,25.32
2018-10-19T19:14:01.269Z,26.33
2018-10-19T19:16:30.796Z,26.30
2018-10-19T19:19:00.077Z,26.35
2018-10-19T19:21:30.686Z,26.10
2018-10-19T19:24:06.949Z,25.30
2018-10-19T19:26:35.738Z,26.77
2018-10-19T19:29:04.358Z,24.97
2018-10-19T19:31:32.744Z,24.67
2018-10-19T19:34:06.729Z,23.77
2018-10-19T19:36:35.131Z,23.60
2018-10-19T19:39:09.500Z,24.12
2018-10-19T19:41:43.208Z,23.53
2018-10-19T19:44:11.826Z,20.57
2018-10-19T19:46:40.064Z,22.47
2018-10-19T19:49:13.642Z,22.10
2018-10-19T19:51:41.977Z,19.57
2018-10-19T19:54:10.388Z,20.13
2018-10-19T19:56:38.812Z,19.82
2018-10-19T19:59:07.589Z,20.27
2018-10-19T20:01:35.944Z,18.42
2018-10-19T20:04:04.497Z,17.40
2018-10-19T20:06:33.065Z,18.47
2018-10-19T20:09:02.090Z,16.77
2018-10-19T20:11:30.724Z,16.40
2018-10-19T20:13:59.208Z,16.50
2018-10-19T20:16:28.095Z,15.90
2018-10-19T20:18:56.470Z,17.47
2018-10-19T20:21:31.812Z,16.40
2018-10-19T20:24:00.171Z,18.37
2018-10-19T20:26:28.569Z,16.60
2018-10-19T20:29:04.344Z,15.80
2018-10-19T20:31:33.423Z,15.83
2018-10-19T20:34:01.835Z,16.40
2018-10-19T20:36:30.484Z,16.43
2018-10-19T20:38:59.149Z,15.75
2018-10-19T20:41:28.705Z,16.83
2018-10-19T20:43:56.979Z,15.33
2018-10-19T20:46:25.386Z,15.83
2018-10-19T20:48:53.780Z,15.63
2018-10-19T20:51:22.473Z,14.97
2018-10-19T20:53:50.871Z,16.83
2018-10-19T20:56:19.589Z,16.60
2018-10-19T20:58:47.916Z,15.48
2018-10-19T21:01:16.336Z,16.30
2018-10-19T21:03:44.845Z,16.53
2018-10-19T21:06:13.158Z,16.60
2018-10-19T21:08:41.534Z,16.80
2018-10-19T21:11:10.908Z,15.93
2018-10-19T21:13:39.405Z,16.73
2018-10-19T21:16:08.040Z,17.63
2018-10-19T21:18:36.780Z,16.30
2018-10-19T21:21:05.914Z,16.37
2018-10-19T21:23:34.687Z,16.27
2018-10-19T21:26:03.100Z,16.07
2018-10-19T21:28:31.744Z,17.07
2018-10-19T21:31:00.284Z,16.17
2018-10-19T21:33:28.608Z,16.23
2018-10-19T21:35:57.238Z,15.50
2018-10-19T21:38:25.697Z,16.27
2018-10-19T21:40:54.103Z,15.97
2018-10-19T21:43:22.481Z,16.20
2018-10-19T21:45:51.061Z,16.07
2018-10-19T21:48:19.424Z,15.83
2018-10-19T21:50:47.890Z,17.30
2018-10-19T21:53:16.787Z,16.10
2018-10-19T21:55:45.352Z,16.87
2018-10-19T21:58:13.700Z,16.77
2018-10-19T22:00:42.192Z,16.00
2018-10-19T22:03:10.557Z,16.80
2018-10-19T22:05:39.129Z,16.33
2018-10-19T22:08:07.642Z,16.27
2018-10-19T22:10:36.005Z,16.15
2018-10-19T22:13:04.370Z,16.40
2018-10-19T22:15:33.108Z,16.32
2018-10-19T22:18:01.705Z,16.77
2018-10-19T22:20:31.572Z,16.10
2018-10-19T22:23:00.101Z,16.87
2018-10-19T22:25:47.738Z,16.20
2018-10-19T22:28:17.710Z,15.77
2018-10-19T22:30:46.280Z,16.20
2018-10-19T22:33:14.679Z,16.43
2018-10-19T22:35:43.034Z,15.70
2018-10-19T22:38:14.711Z,17.37
2018-10-19T22:40:43.285Z,16.47
2018-10-19T22:43:12.094Z,15.03
2018-10-19T22:45:40.381Z,14.67
2018-10-19T22:48:08.966Z,15.60
2018-10-19T22:50:37.565Z,15.13
2018-10-19T22:53:05.978Z,15.17
2018-10-19T22:55:34.455Z,15.67
2018-10-19T22:58:03.583Z,15.63
2018-10-19T23:00:32.096Z,15.80
2018-10-19T23:03:00.680Z,16.73
2018-10-19T23:05:29.385Z,15.90
2018-10-19T23:07:57.723Z,15.43
2018-10-19T23:10:26.049Z,16.12
2018-10-19T23:12:54.466Z,16.50
2018-10-19T23:15:30.336Z,16.83
2018-10-19T23:17:59.223Z,16.63
2018-10-19T23:20:33.523Z,16.33
2018-10-19T23:23:02.667Z,17.00
2018-10-19T23:25:33.988Z,16.87
2018-10-19T23:28:15.995Z,18.23
2018-10-19T23:30:44.384Z,17.10
2018-10-19T23:36:06.024Z,16.77
2018-10-19T23:38:34.444Z,17.98
2018-10-19T23:41:02.877Z,18.13
2018-10-19T23:43:44.411Z,17.17
2018-10-19T23:46:20.649Z,17.17
2018-10-19T23:48:48.995Z,17.60
2018-10-19T23:51:18.652Z,17.43
2018-10-19T23:53:47.225Z,17.63
2018-10-19T23:56:15.901Z,18.93
2018-10-19T23:58:58.934Z,18.67
